createdAt,value
2019-02-05T00:01:25.086Z,8.87
2019-02-05T00:03:55.783Z,8.87
2019-02-05T00:06:26.110Z,8.03
2019-02-05T00:08:56.448Z,9.03
2019-02-05T00:11:27.567Z,8.70
2019-02-05T00:13:57.974Z,8.63
2019-02-05T00:16:28.426Z,9.10
2019-02-05T00:18:59.166Z,9.23
2019-02-05T00:21:29.619Z,9.23
2019-02-05T00:24:00.491Z,8.83
2019-02-05T00:26:30.876Z,8.50
2019-02-05T00:29:01.230Z,9.63
2019-02-05T00:31:31.638Z,8.83
2019-02-05T00:34:01.999Z,8.53
2019-02-05T00:36:32.338Z,8.47
2019-02-05T00:39:03.211Z,8.70
2019-02-05T00:41:34.621Z,8.47
2019-02-05T00:44:05.222Z,8.57
2019-02-05T00:46:35.766Z,8.23
2019-02-05T00:49:06.261Z,7.90
2019-02-05T00:51:36.608Z,8.33
2019-02-05T00:54:07.274Z,8.67
2019-02-05T00:56:37.610Z,7.83
2019-02-05T00:59:08.860Z,8.53
2019-02-05T01:01:39.198Z,8.07
2019-02-05T01:04:09.812Z,8.47
2019-02-05T01:06:40.154Z,7.53
2019-02-05T01:09:11.094Z,8.93
2019-02-05T01:11:41.489Z,7.97
2019-02-05T01:14:11.840Z,7.87
2019-02-05T01:16:42.230Z,7.80
2019-02-05T01:19:12.589Z,7.57
2019-02-05T01:21:42.970Z,7.67
2019-02-05T01:24:13.384Z,7.97
2019-02-05T01:26:44.071Z,7.53
2019-02-05T01:29:14.407Z,7.50
2019-02-05T01:31:44.802Z,7.33
2019-02-05T01:34:15.154Z,7.17
2019-02-05T01:36:45.518Z,7.87
2019-02-05T01:39:16.274Z,8.10
2019-02-05T01:41:46.615Z,8.20
2019-02-05T01:44:17.226Z,7.77
2019-02-05T01:46:47.572Z,7.70
2019-02-05T01:49:17.950Z,8.37
2019-02-05T01:51:48.296Z,7.67
2019-02-05T01:54:18.654Z,7.97
2019-02-05T01:56:49.018Z,8.40
2019-02-05T01:59:19.379Z,7.53
2019-02-05T02:01:50.094Z,7.73
2019-02-05T02:04:20.455Z,7.17
2019-02-05T02:06:51.203Z,7.87
2019-02-05T02:09:21.542Z,7.10
2019-02-05T02:11:51.926Z,7.63
2019-02-05T02:14:22.263Z,7.07
2019-02-05T02:16:53.148Z,7.90
2019-02-05T02:19:23.674Z,7.33
2019-02-05T02:21:55.139Z,7.03
2019-02-05T02:24:25.542Z,7.53
2019-02-05T02:26:57.406Z,7.90
2019-02-05T02:29:29.786Z,7.43
2019-02-05T02:32:00.326Z,6.93
2019-02-05T02:34:31.466Z,7.20
2019-02-05T02:37:01.842Z,7.07
2019-02-05T02:39:32.194Z,7.60
2019-02-05T02:42:03.686Z,7.03
2019-02-05T02:44:34.035Z,7.40
2019-02-05T02:47:04.830Z,7.13
2019-02-05T02:49:35.474Z,6.93
2019-02-05T02:52:05.990Z,7.50
2019-02-05T02:54:36.327Z,7.37
2019-02-05T02:57:06.691Z,7.20
2019-02-05T02:59:37.072Z,7.73
2019-02-05T03:02:07.414Z,7.30
2019-02-05T03:04:37.778Z,7.43
2019-02-05T03:07:08.117Z,6.60
2019-02-05T03:09:38.490Z,7.10
2019-02-05T03:12:08.942Z,7.57
2019-02-05T03:14:39.447Z,7.77
2019-02-05T03:17:09.786Z,7.43
2019-02-05T03:19:42.078Z,7.07
2019-02-05T03:22:12.194Z,7.20
2019-02-05T03:24:42.682Z,7.43
2019-02-05T03:27:18.037Z,7.30
2019-02-05T03:29:45.007Z,6.70
2019-02-05T03:32:15.552Z,7.60
2019-02-05T03:34:46.334Z,7.17
2019-02-05T03:37:16.670Z,6.90
2019-02-05T03:39:47.020Z,7.00
2019-02-05T03:42:17.394Z,7.07
2019-02-05T03:44:47.839Z,7.30
2019-02-05T03:47:18.998Z,7.30
2019-02-05T03:50:08.385Z,6.93
2019-02-05T03:52:50.247Z,7.20
2019-02-05T03:55:52.402Z,6.70
2019-02-05T03:58:49.286Z,7.30
2019-02-05T04:01:49.653Z,7.17
2019-02-05T04:05:26.579Z,7.93
2019-02-05T04:08:53.206Z,7.20
2019-02-05T04:12:05.669Z,7.13
2019-02-05T04:15:04.966Z,7.47
2019-02-05T04:18:01.821Z,7.00
2019-02-05T04:20:55.162Z,7.67
2019-02-05T04:24:14.384Z,7.63
2019-02-05T04:27:43.757Z,7.30
2019-02-05T04:30:38.410Z,7.27
2019-02-05T04:33:53.194Z,8.00
2019-02-05T04:37:13.422Z,7.20
2019-02-05T04:40:29.493Z,6.40
2019-02-05T04:43:34.663Z,8.20
2019-02-05T04:46:31.129Z,7.87
2019-02-05T04:49:48.298Z,8.20
2019-02-05T04:53:01.449Z,9.30
2019-02-05T04:55:50.825Z,7.93
2019-02-05T04:58:51.627Z,8.43
2019-02-05T05:01:59.845Z,8.63
2019-02-05T05:04:54.805Z,8.07
2019-02-05T05:07:48.564Z,9.37
2019-02-05T05:10:18.923Z,9.73
2019-02-05T05:12:49.264Z,8.90
2019-02-05T05:15:19.691Z,9.20
2019-02-05T05:17:50.039Z,8.97
2019-02-05T05:20:20.402Z,9.30
2019-02-05T05:22:50.936Z,9.27
2019-02-05T05:25:21.911Z,9.00
2019-02-05T05:28:09.423Z,8.60
2019-02-05T05:30:28.881Z,8.63
2019-02-05T05:32:59.217Z,8.73
2019-02-05T05:35:40.629Z,7.57
2019-02-05T05:38:03.043Z,7.73
2019-02-05T05:40:33.422Z,7.70
2019-02-05T05:43:03.760Z,8.10
2019-02-05T05:45:34.099Z,8.23
2019-02-05T05:48:04.462Z,7.63
2019-02-05T05:50:35.199Z,8.33
2019-02-05T05:53:05.562Z,7.90
2019-02-05T05:55:35.905Z,8.20
2019-02-05T05:58:06.293Z,8.13
2019-02-05T06:00:36.626Z,8.03
2019-02-05T06:03:07.014Z,7.80
2019-02-05T06:05:37.450Z,7.83
2019-02-05T06:08:08.322Z,8.57
2019-02-05T06:10:38.658Z,8.50
2019-02-05T06:13:09.113Z,7.77
2019-02-05T06:15:39.442Z,8.03
2019-02-05T06:18:09.802Z,7.83
2019-02-05T06:20:41.242Z,8.63
2019-02-05T06:23:11.642Z,8.43
2019-02-05T06:25:42.048Z,8.33
2019-02-05T06:28:12.517Z,8.20
2019-02-05T06:30:42.871Z,8.37
2019-02-05T06:33:13.612Z,8.17
2019-02-05T06:35:43.952Z,8.47
2019-02-05T06:38:14.330Z,7.97
2019-02-05T06:40:44.681Z,8.23
2019-02-05T06:43:15.062Z,7.73
2019-02-05T06:45:45.406Z,8.27
2019-02-05T06:48:16.690Z,7.90
2019-02-05T06:50:47.038Z,8.37
2019-02-05T06:53:17.494Z,8.53
2019-02-05T06:55:47.842Z,8.20
2019-02-05T06:58:18.285Z,8.53
2019-02-05T07:00:48.736Z,7.77
2019-02-05T07:03:19.598Z,8.30
2019-02-05T07:05:49.938Z,7.27
2019-02-05T07:08:20.407Z,8.40
2019-02-05T07:10:51.062Z,8.70
2019-02-05T07:13:21.482Z,9.00
2019-02-05T07:15:51.814Z,9.03
2019-02-05T07:18:22.381Z,8.63
2019-02-05T07:20:52.730Z,9.57
2019-02-05T07:23:23.116Z,10.70
2019-02-05T07:25:53.721Z,9.37
2019-02-05T07:28:24.086Z,9.67
2019-02-05T07:30:54.439Z,9.77
2019-02-05T07:33:24.934Z,9.63
2019-02-05T07:35:55.279Z,10.17
2019-02-05T07:38:25.614Z,9.43
2019-02-05T07:40:56.002Z,9.73
2019-02-05T07:43:26.330Z,10.30
2019-02-05T07:45:57.062Z,9.53
2019-02-05T07:48:30.449Z,9.57
2019-02-05T07:51:00.095Z,9.93
2019-02-05T07:53:33.205Z,9.93
2019-02-05T07:56:02.431Z,9.57
2019-02-05T07:58:32.796Z,10.07
2019-02-05T08:01:03.522Z,9.83
2019-02-05T08:03:34.170Z,10.70
2019-02-05T08:06:04.897Z,9.80
2019-02-05T08:08:35.256Z,10.47
2019-02-05T08:11:06.468Z,9.80
2019-02-05T08:13:36.907Z,9.40
2019-02-05T08:16:07.270Z,10.13
2019-02-05T08:18:38.710Z,10.03
2019-02-05T08:21:10.326Z,10.37
2019-02-05T08:23:40.960Z,10.23
2019-02-05T08:26:11.383Z,9.73
2019-02-05T08:28:41.758Z,9.87
2019-02-05T08:31:12.136Z,10.53
2019-02-05T08:33:43.750Z,10.40
2019-02-05T08:36:14.706Z,11.00
2019-02-05T08:38:45.422Z,11.33
2019-02-05T08:41:16.002Z,9.63
2019-02-05T08:43:46.348Z,10.87
2019-02-05T08:46:17.570Z,10.70
2019-02-05T08:48:47.920Z,10.53
2019-02-05T08:51:18.314Z,10.90
2019-02-05T08:53:48.671Z,10.40
2019-02-05T08:56:19.054Z,10.97
2019-02-05T08:58:49.403Z,11.33
2019-02-05T09:01:20.034Z,11.60
2019-02-05T09:03:50.370Z,10.20
2019-02-05T09:06:20.938Z,11.33
2019-02-05T09:08:51.325Z,10.87
2019-02-05T09:11:21.702Z,10.67
2019-02-05T09:13:52.074Z,10.80
2019-02-05T09:16:23.875Z,11.00
2019-02-05T09:18:54.245Z,10.90
2019-02-05T09:21:24.630Z,10.63
2019-02-05T09:23:55.011Z,10.73
2019-02-05T09:26:25.605Z,10.87
2019-02-05T09:28:55.960Z,10.93
2019-02-05T09:31:26.406Z,10.30
2019-02-05T09:33:56.762Z,11.23
2019-02-05T09:36:27.475Z,11.50
2019-02-05T09:38:58.968Z,11.53
2019-02-05T09:41:31.260Z,11.27
2019-02-05T09:44:01.486Z,11.80
2019-02-05T09:46:32.140Z,11.90
2019-02-05T09:49:02.495Z,11.03
2019-02-05T09:51:32.930Z,10.90
2019-02-05T09:54:03.285Z,11.37
2019-02-05T09:56:33.727Z,11.43
2019-02-05T09:59:05.359Z,11.47
2019-02-05T10:01:35.761Z,10.97
2019-02-05T10:04:06.730Z,11.57
2019-02-05T10:06:37.134Z,11.50
2019-02-05T10:09:09.029Z,11.77
2019-02-05T10:11:39.529Z,11.77
2019-02-05T10:14:10.947Z,12.27
2019-02-05T10:16:42.926Z,11.10
2019-02-05T10:19:15.071Z,11.90
2019-02-05T10:21:46.387Z,11.63
2019-02-05T10:24:17.154Z,12.10
2019-02-05T10:26:47.682Z,11.37
2019-02-05T10:29:18.423Z,11.20
2019-02-05T10:31:48.778Z,11.63
2019-02-05T10:34:19.171Z,11.60
2019-02-05T10:36:49.603Z,11.20
2019-02-05T10:39:20.515Z,12.20
2019-02-05T10:41:50.874Z,11.63
2019-02-05T10:44:21.390Z,11.67
2019-02-05T10:46:51.734Z,11.53
2019-02-05T10:49:22.138Z,11.67
2019-02-05T10:51:52.794Z,12.37
2019-02-05T10:54:25.033Z,12.17
2019-02-05T10:56:55.379Z,11.30
2019-02-05T10:59:25.746Z,12.20
2019-02-05T11:01:56.422Z,12.20
2019-02-05T11:04:26.876Z,11.47
2019-02-05T11:06:58.355Z,12.37
2019-02-05T11:09:28.690Z,12.37
2019-02-05T11:11:59.488Z,12.97
2019-02-05T11:14:29.846Z,11.73
2019-02-05T11:17:00.494Z,11.80
2019-02-05T11:19:30.946Z,11.93
2019-02-05T11:22:02.295Z,11.77
2019-02-05T11:24:32.738Z,11.97
2019-02-05T11:27:03.541Z,12.47
2019-02-05T11:29:33.951Z,12.10
2019-02-05T11:32:04.804Z,11.37
2019-02-05T11:34:37.006Z,11.63
2019-02-05T11:37:07.349Z,12.97
2019-02-05T11:39:38.962Z,13.07
2019-02-05T11:42:09.322Z,12.97
2019-02-05T11:44:41.179Z,13.27
2019-02-05T11:47:11.810Z,12.70
2019-02-05T11:49:44.111Z,13.37
2019-02-05T11:52:14.455Z,12.43
2019-02-05T11:54:44.942Z,12.50
2019-02-05T11:57:15.282Z,12.83
2019-02-05T11:59:45.658Z,12.83
2019-02-05T12:02:16.031Z,12.93
2019-02-05T12:04:46.386Z,10.53
2019-02-05T12:07:16.774Z,12.60
2019-02-05T12:09:47.110Z,12.60
2019-02-05T12:12:17.630Z,13.10
2019-02-05T12:14:50.301Z,12.63
2019-02-05T12:17:20.919Z,12.63
2019-02-05T12:19:51.372Z,12.90
2019-02-05T12:22:21.722Z,12.83
2019-02-05T12:24:52.102Z,13.37
2019-02-05T12:27:24.003Z,12.43
2019-02-05T12:29:54.405Z,13.57
2019-02-05T12:32:24.767Z,13.30
2019-02-05T12:34:55.383Z,12.83
2019-02-05T12:37:25.820Z,13.07
2019-02-05T12:39:56.453Z,12.93
2019-02-05T12:42:26.871Z,12.67
2019-02-05T12:44:57.778Z,13.03
2019-02-05T12:47:28.182Z,13.10
2019-02-05T12:49:58.646Z,12.70
2019-02-05T12:52:30.454Z,13.27
2019-02-05T12:55:12.759Z,13.57
2019-02-05T12:57:32.817Z,13.30
2019-02-05T13:00:06.318Z,13.00
2019-02-05T13:02:36.743Z,12.67
2019-02-05T13:05:07.796Z,13.03
2019-02-05T13:07:39.264Z,13.47
2019-02-05T13:10:11.994Z,12.67
2019-02-05T13:12:42.550Z,13.33
2019-02-05T13:15:13.104Z,14.03
2019-02-05T13:17:43.494Z,13.03
2019-02-05T13:20:28.206Z,13.43
2019-02-05T13:23:00.438Z,13.87
2019-02-05T13:25:31.068Z,13.27
2019-02-05T13:28:01.755Z,13.23
2019-02-05T13:30:33.046Z,13.17
2019-02-05T13:33:03.404Z,14.43
2019-02-05T13:35:34.343Z,13.57
2019-02-05T13:38:05.202Z,13.73
2019-02-05T13:40:36.202Z,14.30
2019-02-05T13:43:07.326Z,13.73
2019-02-05T13:45:38.942Z,14.27
2019-02-05T13:48:10.002Z,13.20
2019-02-05T13:50:40.867Z,13.43
2019-02-05T13:53:11.222Z,14.60
2019-02-05T13:55:43.633Z,13.97
2019-02-05T13:58:15.329Z,13.87
2019-02-05T14:00:48.163Z,13.80
2019-02-05T14:03:18.481Z,14.07
2019-02-05T14:05:48.887Z,14.63
2019-02-05T14:08:19.238Z,14.20
2019-02-05T14:10:50.206Z,14.07
2019-02-05T14:13:20.802Z,13.10
2019-02-05T14:15:53.406Z,13.40
2019-02-05T14:18:23.851Z,13.80
2019-02-05T14:20:54.954Z,12.97
2019-02-05T14:23:25.322Z,14.67
2019-02-05T14:26:14.754Z,13.73
2019-02-05T14:28:45.150Z,13.77
2019-02-05T14:31:15.985Z,13.90
2019-02-05T14:33:46.719Z,13.73
2019-02-05T14:36:19.506Z,14.17
2019-02-05T14:38:50.374Z,14.00
2019-02-05T14:41:20.760Z,14.03
2019-02-05T14:43:51.107Z,14.17
2019-02-05T14:46:21.482Z,14.40
2019-02-05T14:48:51.940Z,14.23
2019-02-05T14:51:22.468Z,14.00
2019-02-05T14:53:52.807Z,13.40
2019-02-05T14:56:23.321Z,13.77
2019-02-05T14:58:53.666Z,13.60
2019-02-05T15:01:24.064Z,14.13
2019-02-05T15:03:54.418Z,14.27
2019-02-05T15:06:25.010Z,14.07
2019-02-05T15:08:56.457Z,13.83
2019-02-05T15:11:26.839Z,14.53
2019-02-05T15:13:57.192Z,15.07
2019-02-05T15:16:27.842Z,14.97
2019-02-05T15:18:59.129Z,14.53
2019-02-05T15:21:29.514Z,14.40
2019-02-05T15:24:00.822Z,14.13
2019-02-05T15:26:32.963Z,14.43
2019-02-05T15:29:03.354Z,14.00
2019-02-05T15:31:33.735Z,14.77
2019-02-05T15:34:09.817Z,15.23
2019-02-05T15:36:43.290Z,15.00
2019-02-05T15:39:16.517Z,15.03
2019-02-05T15:41:47.071Z,16.43
2019-02-05T15:44:17.718Z,15.33
2019-02-05T15:46:48.116Z,16.43
2019-02-05T15:49:19.430Z,15.40
2019-02-05T15:51:49.894Z,15.93
2019-02-05T15:54:20.331Z,17.23
2019-02-05T15:56:51.302Z,18.00
2019-02-05T15:59:21.647Z,18.40
2019-02-05T16:01:52.176Z,16.30
2019-02-05T16:04:24.338Z,15.90
2019-02-05T16:06:56.214Z,16.33
2019-02-05T16:09:26.566Z,15.93
2019-02-05T16:11:56.959Z,16.93
2019-02-05T16:14:27.306Z,16.13
2019-02-05T16:16:57.686Z,17.90
2019-02-05T16:19:28.069Z,16.43
2019-02-05T16:21:58.418Z,15.43
2019-02-05T16:24:29.093Z,17.07
2019-02-05T16:26:59.442Z,16.33
2019-02-05T16:29:30.042Z,16.43
2019-02-05T16:32:01.856Z,16.87
2019-02-05T16:34:32.566Z,17.70
2019-02-05T16:37:02.959Z,17.03
2019-02-05T16:39:34.814Z,17.57
2019-02-05T16:42:05.795Z,18.70
2019-02-05T16:44:36.218Z,16.70
2019-02-05T16:47:06.582Z,17.17
2019-02-05T16:49:36.934Z,18.23
2019-02-05T16:52:07.806Z,18.23
2019-02-05T16:54:38.527Z,18.03
2019-02-05T16:57:08.914Z,17.50
2019-02-05T16:59:39.302Z,16.80
2019-02-05T17:02:09.923Z,19.03
2019-02-05T17:04:40.474Z,18.00
2019-02-05T17:07:11.471Z,19.93
2019-02-05T17:09:41.947Z,16.57
2019-02-05T17:12:12.638Z,17.63
2019-02-05T17:14:43.305Z,17.30
2019-02-05T17:17:16.516Z,16.37
2019-02-05T17:19:46.868Z,16.00
2019-02-05T17:22:19.466Z,17.23
2019-02-05T17:24:49.806Z,17.60
2019-02-05T17:27:20.550Z,17.70
2019-02-05T17:29:52.776Z,16.37
2019-02-05T17:32:23.635Z,15.17
2019-02-05T17:34:53.986Z,15.53
2019-02-05T17:37:24.386Z,15.60
2019-02-05T17:39:54.746Z,14.90
2019-02-05T17:42:25.142Z,15.80
2019-02-05T17:44:55.907Z,15.20
2019-02-05T17:47:26.274Z,14.40
2019-02-05T17:49:58.342Z,13.53
2019-02-05T17:52:30.647Z,14.63
2019-02-05T17:55:02.480Z,16.53
2019-02-05T17:57:33.994Z,15.27
2019-02-05T18:00:08.342Z,13.80
2019-02-05T18:02:51.102Z,15.03
2019-02-05T18:05:14.133Z,13.97
2019-02-05T18:07:45.122Z,13.87
2019-02-05T18:10:19.110Z,12.43
2019-02-05T18:12:49.502Z,13.73
2019-02-05T18:15:28.874Z,15.20
2019-02-05T18:18:00.399Z,17.33
2019-02-05T18:20:30.746Z,14.77
2019-02-05T18:23:01.130Z,14.57
2019-02-05T18:25:31.482Z,15.77
2019-02-05T18:28:02.026Z,15.67
2019-02-05T18:30:33.838Z,13.57
2019-02-05T18:33:05.658Z,15.77
2019-02-05T18:35:37.248Z,14.63
2019-02-05T18:38:26.663Z,14.50
2019-02-05T18:40:57.180Z,14.97
2019-02-05T18:43:27.858Z,17.17
2019-02-05T18:45:58.214Z,17.90
2019-02-05T18:48:28.655Z,15.57
2019-02-05T18:50:59.039Z,15.57
2019-02-05T18:53:29.647Z,15.90
2019-02-05T18:55:59.995Z,14.53
2019-02-05T18:58:30.796Z,14.43
2019-02-05T19:01:01.146Z,15.07
2019-02-05T19:03:31.548Z,14.97
2019-02-05T19:06:01.904Z,14.80
2019-02-05T19:08:33.155Z,23.40
2019-02-05T19:11:04.339Z,24.03
2019-02-05T19:13:34.916Z,15.73
2019-02-05T19:16:05.682Z,17.57
2019-02-05T19:18:36.179Z,16.37
2019-02-05T19:21:06.603Z,15.83
2019-02-05T19:23:37.338Z,15.63
2019-02-05T19:26:25.050Z,16.23
2019-02-05T19:28:55.447Z,16.97
2019-02-05T19:31:34.083Z,17.33
2019-02-05T19:34:05.958Z,17.03
2019-02-05T19:36:36.599Z,16.20
2019-02-05T19:39:08.887Z,16.87
2019-02-05T19:41:39.594Z,16.80
2019-02-05T19:44:11.388Z,17.57
2019-02-05T19:47:00.710Z,17.30
2019-02-05T19:49:39.378Z,16.93
2019-02-05T19:52:10.506Z,17.40
2019-02-05T19:54:40.906Z,15.93
2019-02-05T19:57:11.258Z,16.60
2019-02-05T19:59:42.450Z,17.37
2019-02-05T20:02:12.786Z,16.67
2019-02-05T20:04:43.197Z,18.70
2019-02-05T20:07:13.558Z,17.90
2019-02-05T20:09:44.018Z,17.47
2019-02-05T20:12:14.378Z,17.57
2019-02-05T20:14:45.062Z,19.07
2019-02-05T20:17:17.942Z,17.63
2019-02-05T20:19:48.494Z,18.10
2019-02-05T20:22:18.842Z,16.63
2019-02-05T20:24:50.683Z,17.47
2019-02-05T20:27:21.041Z,17.73
2019-02-05T20:29:51.774Z,16.27
2019-02-05T20:32:22.146Z,16.57
2019-02-05T20:34:52.550Z,17.63
2019-02-05T20:37:24.065Z,19.17
2019-02-05T20:39:54.470Z,18.43
2019-02-05T20:42:24.856Z,21.23
2019-02-05T20:44:55.266Z,17.30
2019-02-05T20:47:25.617Z,18.87
2019-02-05T20:49:56.006Z,20.63
2019-02-05T20:52:27.278Z,20.97
2019-02-05T20:54:57.670Z,20.53
2019-02-05T20:57:28.022Z,20.73
2019-02-05T20:59:58.614Z,17.50
2019-02-05T21:02:41.063Z,17.27
2019-02-05T21:05:13.035Z,18.20
2019-02-05T21:07:43.514Z,19.00
2019-02-05T21:10:17.834Z,16.77
2019-02-05T21:13:07.226Z,21.80
2019-02-05T21:15:38.053Z,17.20
2019-02-05T21:18:08.742Z,21.00
2019-02-05T21:20:39.315Z,20.00
2019-02-05T21:23:11.646Z,16.60
2019-02-05T21:25:42.214Z,21.47
2019-02-05T21:28:14.382Z,19.47
2019-02-05T21:30:44.811Z,17.67
2019-02-05T21:33:15.465Z,20.57
2019-02-05T21:35:46.193Z,16.93
2019-02-05T21:38:17.042Z,18.70
2019-02-05T21:40:47.462Z,17.87
2019-02-05T21:43:17.866Z,19.30
2019-02-05T21:45:48.266Z,18.07
2019-02-05T21:48:18.630Z,19.90
2019-02-05T21:50:49.050Z,17.77
2019-02-05T21:53:19.728Z,18.90
2019-02-05T21:55:51.193Z,18.30
2019-02-05T21:58:21.646Z,20.40
2019-02-05T22:00:52.074Z,18.60
2019-02-05T22:03:22.621Z,20.17
2019-02-05T22:05:53.985Z,20.83
2019-02-05T22:08:24.339Z,21.67
2019-02-05T22:10:54.683Z,19.57
2019-02-05T22:13:25.058Z,20.93
2019-02-05T22:15:55.886Z,19.30
2019-02-05T22:18:27.637Z,18.07
2019-02-05T22:20:58.030Z,19.27
2019-02-05T22:23:28.395Z,17.63
2019-02-05T22:25:59.752Z,18.80
2019-02-05T22:28:31.218Z,19.07
2019-02-05T22:31:01.611Z,18.00
2019-02-05T22:33:31.990Z,17.27
2019-02-05T22:36:02.670Z,20.87
2019-02-05T22:38:33.009Z,18.60
2019-02-05T22:41:03.543Z,18.80
2019-02-05T22:43:33.900Z,20.10
2019-02-05T22:46:04.398Z,18.70
2019-02-05T22:48:35.245Z,17.60
2019-02-05T22:51:06.701Z,18.43
2019-02-05T22:53:37.442Z,17.63
2019-02-05T22:56:08.255Z,16.50
2019-02-05T22:58:38.936Z,18.20
2019-02-05T23:01:57.389Z,18.87
2019-02-05T23:04:56.874Z,17.07
2019-02-05T23:07:28.954Z,18.50
2019-02-05T23:10:26.182Z,19.70
2019-02-05T23:13:17.979Z,18.67
2019-02-05T23:15:50.078Z,18.83
2019-02-05T23:18:20.813Z,17.33
2019-02-05T23:20:53.996Z,18.60
2019-02-05T23:23:24.247Z,19.13
2019-02-05T23:25:54.623Z,20.00
2019-02-05T23:28:25.016Z,19.60
2019-02-05T23:30:55.474Z,18.70
2019-02-05T23:33:26.226Z,19.67
2019-02-05T23:35:56.590Z,19.60
2019-02-05T23:38:29.502Z,20.77
2019-02-05T23:40:58.964Z,19.23
2019-02-05T23:43:29.828Z,20.57
2019-02-05T23:46:01.737Z,18.77
2019-02-05T23:48:32.703Z,19.80
2019-02-05T23:51:03.058Z,19.60
2019-02-05T23:53:34.609Z,19.97
2019-02-05T23:56:04.966Z,18.50
2019-02-05T23:58:35.434Z,19.50
